Time;durP1;ratioP1;P1;durP2;ratioP2;P2;SDS_P1;SDS_P2;PMS_P1;PMS_P2;Temp;Humidity;BMP_temperature;BMP_pressure;BME280_temperature;BME280_humidity;BME280_pressure;Samples;Min_cycle;Max_cycle;Signal;HPM_P1;HPM_P2
2022/07/06 00:01:04;;;;;;;1.20;0.60;;;21.00;1.00;;;;;;5133647;27;20950;-71
2022/07/06 00:03:31;;;;;;;0.70;0.60;;;21.10;1.00;;;;;;5133067;27;20603;-70
2022/07/06 00:06:00;;;;;;;0.80;0.60;;;21.20;1.00;;;;;;5131669;27;20498;-71
2022/07/06 00:08:27;;;;;;;0.60;0.60;;;21.10;1.00;;;;;;5134881;28;20486;-71
2022/07/06 00:10:53;;;;;;;0.83;0.60;;;21.00;1.00;;;;;;5135328;27;20542;-72
2022/07/06 00:13:20;;;;;;;0.87;0.50;;;20.90;1.00;;;;;;5134760;28;20479;-71
2022/07/06 00:15:47;;;;;;;1.90;0.70;;;20.80;1.00;;;;;;5133470;28;20554;-71
2022/07/06 00:18:14;;;;;;;0.80;0.67;;;20.80;1.00;;;;;;5136131;28;20479;-72
2022/07/06 00:20:41;;;;;;;0.80;0.53;;;20.80;1.00;;;;;;5135681;28;20965;-71
2022/07/06 00:23:09;;;;;;;1.10;0.60;;;20.70;1.00;;;;;;5134667;28;20499;-71
2022/07/06 00:25:36;;;;;;;2.20;0.60;;;20.80;1.00;;;;;;5131278;28;20867;-71
2022/07/06 00:28:04;;;;;;;0.83;0.70;;;20.90;1.00;;;;;;5136487;28;20565;-71
2022/07/06 00:30:31;;;;;;;1.63;0.63;;;20.90;1.00;;;;;;5135639;28;20489;-71
2022/07/06 00:32:58;;;;;;;0.80;0.70;;;20.80;1.00;;;;;;5129280;28;20926;-71
2022/07/06 00:35:26;;;;;;;0.80;0.60;;;20.70;1.00;;;;;;5129571;28;20908;-71
2022/07/06 00:37:53;;;;;;;0.80;0.60;;;20.60;1.00;;;;;;5130103;28;20877;-71
2022/07/06 00:40:21;;;;;;;0.80;0.60;;;20.70;1.00;;;;;;5127186;28;20554;-72
2022/07/06 00:42:49;;;;;;;0.60;0.50;;;20.60;1.00;;;;;;5132107;28;21033;-71
2022/07/06 00:45:18;;;;;;;1.27;0.57;;;20.60;1.00;;;;;;5132349;28;20451;-71
2022/07/06 00:47:46;;;;;;;1.70;0.70;;;20.60;1.00;;;;;;5134275;28;20522;-71
2022/07/06 00:50:15;;;;;;;0.90;0.70;;;20.70;1.00;;;;;;5133548;28;20558;-71
2022/07/06 00:52:43;;;;;;;0.70;0.60;;;20.60;1.00;;;;;;5135281;28;20486;-72
2022/07/06 00:55:10;;;;;;;0.70;0.63;;;20.60;1.00;;;;;;5135753;28;20499;-71
2022/07/06 00:57:40;;;;;;;1.00;0.60;;;20.60;1.00;;;;;;5134530;28;20456;-71
2022/07/06 01:00:11;;;;;;;1.20;0.60;;;20.60;1.00;;;;;;5135488;28;20886;-71
2022/07/06 01:02:38;;;;;;;0.60;0.50;;;20.60;1.00;;;;;;5136163;28;20478;-71
2022/07/06 01:05:07;;;;;;;1.37;0.60;;;20.60;1.00;;;;;;5134751;28;20487;-71
2022/07/06 01:07:34;;;;;;;0.70;0.60;;;20.60;1.00;;;;;;5131113;28;20561;-71
2022/07/06 01:10:03;;;;;;;1.47;0.60;;;20.60;1.00;;;;;;5136040;28;20550;-72
2022/07/06 01:12:30;;;;;;;1.33;0.60;;;20.60;1.00;;;;;;5136126;28;20444;-71
2022/07/06 01:14:59;;;;;;;0.80;0.60;;;20.50;1.00;;;;;;5135619;28;20562;-72
2022/07/06 01:17:26;;;;;;;0.80;0.60;;;20.60;1.00;;;;;;5135576;28;20476;-71
2022/07/06 01:19:53;;;;;;;0.67;0.50;;;20.50;1.00;;;;;;5133863;28;20551;-71
2022/07/06 01:22:22;;;;;;;0.93;0.60;;;20.60;1.00;;;;;;5136634;27;20490;-71
2022/07/06 01:24:49;;;;;;;0.93;0.60;;;20.50;1.00;;;;;;5139863;27;20569;-71
2022/07/06 01:27:16;;;;;;;0.80;0.50;;;20.40;1.00;;;;;;5139188;27;20574;-72
2022/07/06 01:29:43;;;;;;;0.73;0.50;;;20.30;1.00;;;;;;5129974;27;20499;-71
2022/07/06 01:32:10;;;;;;;0.90;0.70;;;20.20;1.00;;;;;;5139260;27;20538;-72
2022/07/06 01:34:37;;;;;;;0.70;0.50;;;20.10;1.00;;;;;;5139330;27;20499;-71
2022/07/06 01:37:04;;;;;;;0.60;0.50;;;20.00;1.00;;;;;;5138523;27;20455;-72
2022/07/06 01:39:33;;;;;;;1.37;0.60;;;20.00;1.00;;;;;;5135676;27;20554;-71
2022/07/06 01:41:59;;;;;;;0.70;0.50;;;20.10;1.00;;;;;;5139631;27;20461;-71
2022/07/06 01:44:26;;;;;;;0.60;0.50;;;19.90;1.00;;;;;;5139652;27;20477;-71
2022/07/06 01:46:53;;;;;;;0.70;0.50;;;20.00;1.00;;;;;;5138460;27;20488;-71
2022/07/06 01:49:20;;;;;;;1.00;0.53;;;19.90;1.00;;;;;;5138250;27;20548;-71
2022/07/06 01:51:47;;;;;;;0.87;0.53;;;19.90;1.00;;;;;;5136822;27;20534;-72
2022/07/06 01:54:14;;;;;;;0.70;0.50;;;19.80;1.00;;;;;;5139526;27;20570;-71
2022/07/06 01:56:42;;;;;;;0.80;0.50;;;19.70;1.00;;;;;;5139916;27;20526;-71
2022/07/06 01:59:10;;;;;;;0.70;0.60;;;19.70;1.00;;;;;;5138243;27;20491;-71
2022/07/06 02:01:37;;;;;;;0.70;0.50;;;19.70;1.00;;;;;;5139772;27;20475;-71
2022/07/06 02:04:03;;;;;;;1.00;0.70;;;19.60;1.00;;;;;;5137887;27;20550;-71
2022/07/06 02:06:30;;;;;;;1.17;0.70;;;19.60;1.00;;;;;;5139737;27;20497;-71
2022/07/06 02:08:57;;;;;;;0.67;0.50;;;19.50;1.00;;;;;;5139631;27;20524;-72
2022/07/06 02:11:24;;;;;;;0.80;0.60;;;19.40;1.00;;;;;;5139625;27;20917;-72
2022/07/06 02:13:52;;;;;;;0.60;0.50;;;19.40;1.00;;;;;;5138305;27;20499;-72
2022/07/06 02:16:19;;;;;;;2.30;0.60;;;19.30;1.00;;;;;;5139240;27;20464;-72
2022/07/06 02:18:47;;;;;;;0.70;0.50;;;19.30;1.00;;;;;;5135951;27;20487;-71
2022/07/06 02:21:13;;;;;;;0.63;0.43;;;19.20;1.00;;;;;;5139214;27;20539;-71
2022/07/06 02:23:40;;;;;;;0.70;0.60;;;19.30;1.00;;;;;;5138851;27;20486;-72
2022/07/06 02:26:07;;;;;;;0.87;0.53;;;19.30;1.00;;;;;;5138270;27;20538;-71
2022/07/06 02:28:34;;;;;;;1.13;0.50;;;19.30;1.00;;;;;;5138895;27;20574;-71
2022/07/06 02:31:02;;;;;;;0.77;0.50;;;19.20;1.00;;;;;;5139042;27;20483;-72
2022/07/06 02:33:29;;;;;;;0.50;0.50;;;19.10;1.00;;;;;;5135849;27;20547;-71
2022/07/06 02:35:56;;;;;;;1.00;0.60;;;19.10;1.00;;;;;;5139041;27;21012;-71
2022/07/06 02:38:23;;;;;;;0.67;0.50;;;19.00;1.00;;;;;;5138879;27;20539;-71
2022/07/06 02:40:50;;;;;;;0.83;0.60;;;19.00;1.00;;;;;;5138991;27;20545;-72
2022/07/06 02:43:17;;;;;;;1.87;0.50;;;19.10;1.00;;;;;;5122385;27;20907;-71
2022/07/06 02:45:44;;;;;;;0.70;0.57;;;19.10;1.00;;;;;;5130992;27;20496;-71
2022/07/06 02:48:12;;;;;;;0.70;0.60;;;18.90;1.00;;;;;;5138629;27;20578;-72
2022/07/06 02:50:39;;;;;;;0.60;0.50;;;18.90;1.00;;;;;;5138769;27;20939;-71
2022/07/06 02:53:06;;;;;;;5.43;0.60;;;19.00;1.00;;;;;;5125106;27;20492;-72
2022/07/06 02:55:33;;;;;;;0.90;0.50;;;19.00;1.00;;;;;;5118129;28;20484;-72
2022/07/06 02:58:00;;;;;;;0.63;0.50;;;18.90;1.00;;;;;;5113169;27;20817;-72
2022/07/06 03:00:27;;;;;;;1.13;0.60;;;19.00;1.00;;;;;;5117827;28;20453;-71
2022/07/06 03:02:54;;;;;;;0.90;0.53;;;18.90;1.00;;;;;;5117987;28;20444;-72
2022/07/06 03:05:22;;;;;;;0.83;0.60;;;19.00;1.00;;;;;;5117615;28;20821;-71
2022/07/06 03:07:49;;;;;;;0.90;0.60;;;19.00;1.00;;;;;;5112086;28;20878;-71
2022/07/06 03:10:16;;;;;;;0.70;0.60;;;19.00;1.00;;;;;;5117960;28;20972;-72
2022/07/06 03:12:43;;;;;;;0.77;0.60;;;19.00;1.00;;;;;;5117839;28;20516;-71
2022/07/06 03:15:12;;;;;;;0.60;0.50;;;19.00;1.00;;;;;;5117559;28;20552;-71
2022/07/06 03:17:39;;;;;;;0.60;0.50;;;18.90;1.00;;;;;;5112669;28;20551;-71
2022/07/06 03:20:07;;;;;;;0.93;0.60;;;18.90;1.00;;;;;;5117478;28;20502;-71
2022/07/06 03:22:36;;;;;;;0.70;0.50;;;18.70;1.00;;;;;;5117851;28;20448;-72
2022/07/06 03:25:03;;;;;;;0.90;0.70;;;18.60;1.00;;;;;;5117290;28;20491;-72
2022/07/06 03:27:30;;;;;;;0.90;0.60;;;18.60;1.00;;;;;;5116275;28;20518;-71
2022/07/06 03:29:57;;;;;;;1.07;0.70;;;18.30;1.00;;;;;;5113961;28;20601;-71
2022/07/06 03:32:23;;;;;;;1.10;0.60;;;18.10;1.00;;;;;;5117375;28;20539;-71
2022/07/06 03:34:50;;;;;;;0.80;0.60;;;17.90;1.00;;;;;;5117308;28;20556;-72
2022/07/06 03:37:17;;;;;;;0.60;0.60;;;17.70;1.00;;;;;;5117078;28;20465;-71
2022/07/06 03:39:45;;;;;;;1.27;0.70;;;17.60;15.10;;;;;;5101692;28;20511;-72
2022/07/06 03:42:12;;;;;;;0.87;0.60;;;17.50;91.00;;;;;;5095857;28;20543;-72
2022/07/06 03:44:39;;;;;;;1.33;0.70;;;17.40;65.20;;;;;;5095910;28;20504;-73
2022/07/06 03:47:06;;;;;;;1.33;0.60;;;17.60;99.90;;;;;;5094618;28;20492;-73
2022/07/06 03:49:33;;;;;;;0.70;0.50;;;17.60;78.30;;;;;;5095123;28;21018;-73
2022/07/06 03:52:00;;;;;;;1.70;0.60;;;17.70;10.50;;;;;;5098369;28;20469;-72
2022/07/06 03:54:27;;;;;;;0.90;0.60;;;18.00;1.00;;;;;;5135371;27;20574;-73
2022/07/06 03:56:55;;;;;;;1.23;0.70;;;18.10;1.00;;;;;;5130386;27;20889;-72
2022/07/06 03:59:22;;;;;;;1.40;0.60;;;18.00;1.00;;;;;;5115720;28;20484;-73
2022/07/06 04:01:49;;;;;;;0.70;0.60;;;18.00;1.00;;;;;;5114836;28;20951;-72
2022/07/06 04:04:16;;;;;;;0.90;0.63;;;18.00;1.00;;;;;;5115120;28;20942;-73
2022/07/06 04:06:43;;;;;;;0.80;0.60;;;18.40;1.00;;;;;;5114127;28;20460;-73
2022/07/06 04:09:10;;;;;;;0.90;0.60;;;18.40;1.00;;;;;;5127332;28;20578;-73
2022/07/06 04:11:37;;;;;;;1.00;0.70;;;18.50;1.00;;;;;;5134079;28;20871;-72
2022/07/06 04:14:06;;;;;;;0.80;0.60;;;18.70;1.00;;;;;;5136637;28;20781;-72
2022/07/06 04:16:33;;;;;;;0.87;0.70;;;18.80;1.00;;;;;;5136424;28;20495;-72
2022/07/06 04:18:59;;;;;;;1.03;0.70;;;18.70;1.00;;;;;;5134671;28;20459;-72
2022/07/06 04:21:26;;;;;;;1.30;0.70;;;18.60;1.00;;;;;;5134535;28;20522;-72
2022/07/06 04:23:53;;;;;;;0.87;0.63;;;18.60;1.00;;;;;;5134632;28;20502;-72
2022/07/06 04:26:20;;;;;;;0.77;0.60;;;18.50;1.00;;;;;;5134316;28;20555;-71
2022/07/06 04:28:47;;;;;;;0.80;0.60;;;18.50;1.00;;;;;;5136635;28;20519;-72
2022/07/06 04:31:15;;;;;;;0.80;0.57;;;18.60;1.00;;;;;;5136617;28;20789;-73
2022/07/06 04:33:43;;;;;;;1.03;0.70;;;18.50;1.00;;;;;;5127433;28;20832;-72
2022/07/06 04:36:10;;;;;;;0.97;0.80;;;18.60;1.00;;;;;;5134498;28;20470;-73
2022/07/06 04:38:37;;;;;;;1.10;0.70;;;18.70;1.00;;;;;;5133542;28;20898;-73
2022/07/06 04:41:04;;;;;;;0.80;0.70;;;18.80;1.00;;;;;;5121083;28;20483;-73
2022/07/06 04:43:31;;;;;;;1.10;0.80;;;18.80;1.00;;;;;;5134061;28;20497;-73
2022/07/06 04:45:58;;;;;;;0.80;0.70;;;19.00;1.00;;;;;;5131010;27;20487;-74
2022/07/06 04:48:26;;;;;;;1.30;0.80;;;19.10;1.00;;;;;;5139139;27;20562;-74
2022/07/06 04:50:53;;;;;;;0.80;0.70;;;19.00;1.00;;;;;;5130116;27;20467;-73
2022/07/06 04:53:20;;;;;;;1.53;0.80;;;18.90;1.00;;;;;;5123204;28;20837;-74
2022/07/06 04:55:47;;;;;;;3.03;0.80;;;18.90;1.00;;;;;;5116290;28;20448;-73
2022/07/06 04:58:14;;;;;;;3.33;0.80;;;19.10;1.00;;;;;;5128124;27;21145;-74
2022/07/06 05:00:41;;;;;;;0.80;0.80;;;19.10;1.00;;;;;;5129279;27;20457;-74
2022/07/06 05:03:08;;;;;;;1.20;0.90;;;19.00;1.00;;;;;;5126769;27;20882;-74
2022/07/06 05:05:36;;;;;;;1.07;0.80;;;18.60;1.00;;;;;;5139387;27;20804;-73
2022/07/06 05:08:04;;;;;;;2.47;0.80;;;18.40;16.20;;;;;;5136591;27;20518;-73
2022/07/06 05:10:33;;;;;;;1.10;0.70;;;18.80;28.50;;;;;;5137010;27;20847;-73
2022/07/06 05:13:00;;;;;;;1.10;0.80;;;18.80;1.00;;;;;;5125657;27;20460;-73
2022/07/06 05:15:28;;;;;;;0.90;0.80;;;18.80;1.00;;;;;;5139141;27;20455;-73
2022/07/06 05:17:54;;;;;;;0.90;0.80;;;18.80;1.00;;;;;;5138089;27;20447;-73
2022/07/06 05:20:21;;;;;;;1.00;0.90;;;18.70;1.00;;;;;;5129868;27;20938;-73
2022/07/06 05:22:50;;;;;;;0.90;0.80;;;18.50;38.30;;;;;;5118201;28;20483;-74
2022/07/06 05:25:17;;;;;;;1.40;1.03;;;18.80;17.00;;;;;;5124229;27;20484;-73
2022/07/06 05:27:44;;;;;;;1.00;0.80;;;18.80;1.00;;;;;;5138322;27;20539;-73
2022/07/06 05:30:11;;;;;;;1.47;0.90;;;18.80;9.80;;;;;;5136291;27;20510;-74
2022/07/06 05:32:38;;;;;;;1.70;0.90;;;18.80;18.90;;;;;;5137674;27;20451;-73
2022/07/06 05:35:06;;;;;;;3.60;1.03;;;18.90;1.00;;;;;;5126444;27;20559;-73
2022/07/06 05:37:33;;;;;;;1.00;0.90;;;19.00;1.00;;;;;;5136019;27;20891;-74
2022/07/06 05:40:01;;;;;;;1.80;0.77;;;19.10;1.00;;;;;;5134233;27;20486;-73
2022/07/06 05:42:28;;;;;;;1.00;0.73;;;19.20;1.00;;;;;;5135412;27;20448;-73
2022/07/06 05:44:56;;;;;;;1.80;0.80;;;19.20;1.00;;;;;;5131732;27;20476;-73
2022/07/06 05:50:15;;;;;;;1.00;0.70;;;19.10;1.00;;;;;;5133908;27;20467;-73
2022/07/06 05:52:43;;;;;;;2.23;1.00;;;19.30;1.00;;;;;;5128595;27;20575;-74
2022/07/06 05:55:11;;;;;;;1.30;0.90;;;19.20;1.00;;;;;;5133031;27;20562;-75
2022/07/06 05:57:39;;;;;;;1.00;0.83;;;19.10;1.00;;;;;;5132015;27;20730;-73
2022/07/06 06:00:08;;;;;;;1.30;1.00;;;19.20;1.00;;;;;;5128833;27;20487;-73
2022/07/06 06:02:39;;;;;;;1.10;0.73;;;19.00;1.00;;;;;;5135841;27;20806;-75
2022/07/06 06:05:08;;;;;;;0.90;0.80;;;18.90;1.00;;;;;;5133604;27;20457;-74
2022/07/06 06:07:36;;;;;;;1.37;0.93;;;19.10;1.00;;;;;;5133688;27;20444;-74
2022/07/06 06:10:04;;;;;;;0.90;0.77;;;19.10;1.00;;;;;;5131193;27;21006;-74
2022/07/06 06:12:33;;;;;;;1.80;0.70;;;19.10;1.00;;;;;;5135012;27;20456;-74
2022/07/06 06:15:00;;;;;;;0.90;0.80;;;19.10;1.00;;;;;;5132839;27;20511;-73
2022/07/06 06:17:27;;;;;;;1.20;0.80;;;19.20;1.00;;;;;;5128778;27;20864;-74
2022/07/06 06:19:54;;;;;;;2.17;0.90;;;19.10;1.00;;;;;;5134711;27;20534;-74
2022/07/06 06:22:21;;;;;;;2.20;0.83;;;19.10;1.00;;;;;;5128499;27;20546;-74
2022/07/06 06:24:48;;;;;;;0.90;0.70;;;19.20;1.00;;;;;;5129438;27;20554;-75
2022/07/06 06:27:15;;;;;;;1.40;0.70;;;19.40;1.00;;;;;;5115900;27;20457;-74
2022/07/06 06:29:44;;;;;;;3.20;0.70;;;19.50;1.00;;;;;;5131184;27;20980;-74
2022/07/06 06:32:12;;;;;;;1.13;0.83;;;19.80;1.00;;;;;;5135029;27;20447;-74
2022/07/06 06:34:39;;;;;;;0.90;0.70;;;19.80;1.00;;;;;;5134428;27;20550;-73
2022/07/06 06:37:06;;;;;;;1.67;0.70;;;19.90;1.00;;;;;;5133800;27;20448;-74
2022/07/06 06:39:34;;;;;;;1.83;0.60;;;20.00;1.00;;;;;;5134573;27;20539;-74
2022/07/06 06:42:02;;;;;;;0.70;0.60;;;19.80;1.00;;;;;;5130540;27;20975;-74
2022/07/06 06:44:29;;;;;;;1.90;0.80;;;19.90;1.00;;;;;;5133333;27;20517;-73
2022/07/06 06:46:58;;;;;;;1.13;0.80;;;19.90;1.00;;;;;;5132838;27;21046;-75
2022/07/06 06:49:25;;;;;;;1.00;0.80;;;20.00;1.00;;;;;;5132473;27;20520;-76
2022/07/06 06:51:52;;;;;;;1.00;0.70;;;20.00;1.00;;;;;;5133479;27;20472;-75
2022/07/06 06:54:19;;;;;;;18.57;2.13;;;20.00;1.00;;;;;;5132733;27;20476;-74
2022/07/06 06:56:48;;;;;;;0.80;0.70;;;20.00;1.00;;;;;;5133100;27;20515;-76
2022/07/06 06:59:15;;;;;;;1.07;0.70;;;20.10;1.00;;;;;;5134523;27;20448;-75
2022/07/06 07:01:42;;;;;;;1.23;1.00;;;20.30;1.00;;;;;;5131276;27;20478;-75
2022/07/06 07:04:11;;;;;;;0.80;0.60;;;20.30;1.00;;;;;;5132158;27;20484;-74
2022/07/06 07:06:38;;;;;;;2.70;2.00;;;20.30;1.00;;;;;;5132073;27;20881;-73
2022/07/06 07:09:06;;;;;;;1.20;0.70;;;20.40;1.00;;;;;;5132865;27;21037;-74
2022/07/06 07:11:33;;;;;;;1.30;0.90;;;20.40;1.00;;;;;;5133235;27;20438;-75
2022/07/06 07:14:01;;;;;;;0.93;0.70;;;20.50;1.00;;;;;;5116331;27;20526;-76
2022/07/06 07:16:28;;;;;;;1.17;0.70;;;20.50;1.00;;;;;;5124800;27;20487;-75
2022/07/06 07:18:55;;;;;;;0.90;0.70;;;20.50;1.00;;;;;;5132622;27;20477;-75
2022/07/06 07:21:23;;;;;;;0.80;0.80;;;20.60;1.00;;;;;;5130118;27;20489;-75
2022/07/06 07:23:50;;;;;;;0.87;0.63;;;20.70;1.00;;;;;;5133251;27;20551;-76
2022/07/06 07:26:18;;;;;;;0.83;0.70;;;20.80;1.00;;;;;;5134960;27;20547;-76
2022/07/06 07:28:45;;;;;;;4.23;2.07;;;20.50;1.00;;;;;;5125148;27;20475;-76
2022/07/06 07:31:12;;;;;;;1.97;0.80;;;20.70;1.00;;;;;;5123222;27;20887;-76
2022/07/06 07:33:39;;;;;;;0.93;0.60;;;20.80;1.00;;;;;;5117464;27;20534;-75
2022/07/06 07:36:07;;;;;;;1.33;0.90;;;20.60;1.00;;;;;;5116748;27;20535;-74
2022/07/06 07:38:36;;;;;;;0.80;0.67;;;20.70;1.00;;;;;;5125822;27;20461;-74
2022/07/06 07:41:03;;;;;;;1.00;0.70;;;20.80;1.00;;;;;;5129146;27;20449;-74
2022/07/06 07:43:30;;;;;;;2.07;0.80;;;20.90;1.00;;;;;;5120199;27;20447;-73
2022/07/06 07:45:57;;;;;;;0.70;0.60;;;20.90;1.00;;;;;;5119320;27;20530;-74
2022/07/06 07:48:24;;;;;;;1.00;0.80;;;20.90;1.00;;;;;;5120584;27;20533;-73
2022/07/06 07:50:51;;;;;;;1.97;0.70;;;21.00;1.00;;;;;;5133324;27;21004;-72
2022/07/06 07:53:18;;;;;;;2.40;0.77;;;20.90;1.00;;;;;;5120077;27;20464;-73
2022/07/06 07:55:46;;;;;;;0.90;0.63;;;21.00;1.00;;;;;;5126157;27;20542;-73
2022/07/06 07:58:13;;;;;;;1.70;0.80;;;21.10;1.00;;;;;;5132478;27;20447;-73
2022/07/06 08:00:40;;;;;;;1.60;0.60;;;21.10;1.00;;;;;;5134995;27;20500;-73
2022/07/06 08:03:07;;;;;;;0.90;0.70;;;21.00;1.00;;;;;;5133674;27;20463;-74
2022/07/06 08:05:34;;;;;;;0.90;0.80;;;21.10;1.00;;;;;;5130310;27;20504;-74
2022/07/06 08:08:01;;;;;;;1.27;0.87;;;21.30;1.00;;;;;;5137805;27;20517;-73
2022/07/06 08:10:28;;;;;;;0.80;0.70;;;21.30;1.00;;;;;;5134683;27;20596;-73
2022/07/06 08:12:56;;;;;;;1.10;0.83;;;21.30;1.00;;;;;;5133719;28;20479;-73
2022/07/06 08:15:23;;;;;;;1.60;0.80;;;21.40;1.00;;;;;;5133016;27;20486;-72
2022/07/06 08:17:50;;;;;;;1.10;0.70;;;21.50;1.00;;;;;;5131133;27;20475;-72
2022/07/06 08:20:17;;;;;;;2.17;0.80;;;21.50;1.00;;;;;;5133138;27;20497;-73
2022/07/06 08:22:44;;;;;;;1.47;0.83;;;21.60;1.00;;;;;;5131441;27;20475;-73
2022/07/06 08:25:12;;;;;;;1.00;0.90;;;21.60;1.00;;;;;;5125959;28;20539;-72
2022/07/06 08:27:40;;;;;;;1.50;0.90;;;21.60;1.00;;;;;;5132537;27;20490;-74
2022/07/06 08:30:11;;;;;;;3.03;0.90;;;21.60;1.00;;;;;;5134256;28;20228;-74
2022/07/06 08:32:39;;;;;;;0.80;0.60;;;21.60;1.00;;;;;;5132177;27;20770;-71
2022/07/06 08:35:07;;;;;;;3.00;0.80;;;21.70;1.00;;;;;;5134929;27;20488;-72
2022/07/06 08:37:34;;;;;;;1.10;0.80;;;21.70;1.00;;;;;;5136604;27;20472;-73
2022/07/06 08:40:02;;;;;;;2.00;0.87;;;21.70;1.00;;;;;;5136706;27;20534;-73
2022/07/06 08:42:33;;;;;;;1.30;0.70;;;21.80;1.00;;;;;;5132685;27;20493;-73
2022/07/06 08:45:01;;;;;;;1.30;0.90;;;21.80;1.00;;;;;;5137055;27;20466;-72
2022/07/06 08:47:29;;;;;;;2.00;0.63;;;21.80;1.00;;;;;;5134329;27;20812;-72
2022/07/06 08:49:56;;;;;;;1.10;0.80;;;21.90;1.00;;;;;;5130181;27;20552;-71
2022/07/06 08:52:24;;;;;;;0.93;0.70;;;21.80;1.00;;;;;;5114933;27;20753;-71
2022/07/06 08:54:52;;;;;;;1.00;0.80;;;21.90;1.00;;;;;;5126980;27;20494;-75
2022/07/06 08:57:19;;;;;;;1.30;0.80;;;22.10;1.00;;;;;;5133915;27;20233;-74
2022/07/06 08:59:46;;;;;;;0.83;0.70;;;22.10;1.00;;;;;;5127230;27;20447;-73
2022/07/06 09:02:14;;;;;;;1.20;0.90;;;22.20;1.00;;;;;;5109262;27;20459;-73
2022/07/06 09:04:44;;;;;;;2.00;0.67;;;22.40;1.00;;;;;;5137342;27;20555;-73
2022/07/06 09:07:11;;;;;;;1.53;0.80;;;22.30;1.00;;;;;;5132640;27;20447;-73
2022/07/06 09:09:40;;;;;;;0.90;0.80;;;22.20;1.00;;;;;;5134290;27;20479;-73
2022/07/06 09:12:13;;;;;;;1.20;0.70;;;22.30;1.00;;;;;;5112576;27;20490;-76
2022/07/06 09:14:40;;;;;;;1.63;0.80;;;22.30;1.00;;;;;;5124884;27;20784;-74
2022/07/06 09:17:07;;;;;;;1.67;0.70;;;22.20;1.00;;;;;;5113887;27;20483;-75
2022/07/06 09:19:36;;;;;;;0.90;0.60;;;22.30;1.00;;;;;;5136918;27;20764;-75
2022/07/06 09:22:05;;;;;;;1.40;0.70;;;22.50;1.00;;;;;;5127796;27;20459;-74
2022/07/06 09:24:33;;;;;;;1.50;0.70;;;22.70;1.00;;;;;;5136918;27;20455;-74
2022/07/06 09:27:04;;;;;;;1.20;0.80;;;23.00;1.00;;;;;;5134142;27;20558;-75
2022/07/06 09:29:32;;;;;;;7.57;5.70;;;22.80;1.00;;;;;;5133870;27;20958;-75
2022/07/06 09:32:06;;;;;;;0.90;0.70;;;22.80;1.00;;;;;;5135113;27;20561;-74
2022/07/06 09:34:43;;;;;;;0.90;0.73;;;23.00;1.00;;;;;;5135143;27;20452;-73
2022/07/06 09:37:12;;;;;;;1.00;0.80;;;22.80;1.00;;;;;;5126853;27;20444;-71
2022/07/06 09:39:39;;;;;;;1.23;0.80;;;23.00;1.00;;;;;;5116936;27;20835;-73
2022/07/06 09:42:09;;;;;;;1.10;0.90;;;23.10;1.00;;;;;;5106980;27;20759;-73
2022/07/06 09:44:37;;;;;;;1.20;0.70;;;23.40;1.00;;;;;;5104572;27;20556;-75
2022/07/06 09:47:06;;;;;;;1.00;0.80;;;23.30;1.00;;;;;;5120769;27;20498;-75
2022/07/06 09:49:36;;;;;;;1.00;0.70;;;23.40;1.00;;;;;;5125343;27;20500;-74
2022/07/06 09:52:05;;;;;;;0.83;0.77;;;23.50;1.00;;;;;;5119657;27;20456;-74
2022/07/06 09:54:34;;;;;;;0.90;0.80;;;23.80;1.00;;;;;;5135692;27;20447;-73
2022/07/06 09:57:02;;;;;;;2.17;0.90;;;23.80;1.00;;;;;;5136176;27;20440;-73
2022/07/06 09:59:30;;;;;;;2.03;0.90;;;23.90;1.00;;;;;;5127135;27;20538;-74
2022/07/06 10:02:00;;;;;;;1.37;0.70;;;23.80;1.00;;;;;;5120422;27;20475;-74
2022/07/06 10:04:29;;;;;;;2.13;0.80;;;23.80;1.00;;;;;;5112621;28;20448;-74
2022/07/06 10:06:58;;;;;;;0.90;0.80;;;24.00;1.00;;;;;;5123060;27;20440;-74
2022/07/06 10:09:27;;;;;;;0.90;0.80;;;24.30;1.00;;;;;;5152645;27;20493;-74
2022/07/06 10:11:56;;;;;;;1.20;0.90;;;24.30;1.00;;;;;;5151190;27;20479;-73
2022/07/06 10:14:25;;;;;;;1.53;0.70;;;24.20;1.00;;;;;;5120094;27;20479;-74
2022/07/06 10:16:53;;;;;;;1.90;0.80;;;24.50;1.00;;;;;;5122728;27;20506;-74
2022/07/06 10:19:22;;;;;;;0.97;0.80;;;24.60;1.00;;;;;;5114610;27;20457;-74
2022/07/06 10:21:51;;;;;;;1.20;0.70;;;24.80;1.00;;;;;;5115209;27;20547;-73
2022/07/06 10:24:20;;;;;;;3.70;1.40;;;24.80;1.00;;;;;;5117039;27;20459;-74
2022/07/06 10:26:47;;;;;;;1.00;0.80;;;25.10;1.00;;;;;;5123099;27;20892;-73
2022/07/06 10:29:16;;;;;;;1.30;0.80;;;25.10;1.00;;;;;;5119645;27;20448;-75
2022/07/06 10:31:47;;;;;;;0.90;0.70;;;25.10;1.00;;;;;;5132172;27;20953;-74
2022/07/06 10:34:17;;;;;;;1.63;0.80;;;25.60;1.00;;;;;;5125511;27;20506;-73
2022/07/06 10:36:45;;;;;;;1.83;0.70;;;25.80;1.00;;;;;;5122596;27;20446;-73
2022/07/06 10:41:57;;;;;;;2.07;0.90;;;26.00;1.00;;;;;;5133026;27;20447;-72
2022/07/06 10:44:27;;;;;;;0.70;0.60;;;26.10;1.00;;;;;;5133176;27;20475;-74
2022/07/06 10:46:56;;;;;;;1.10;0.70;;;26.20;1.00;;;;;;5133958;27;20505;-73
2022/07/06 10:49:24;;;;;;;0.80;0.80;;;26.20;1.00;;;;;;5124299;27;20451;-74
2022/07/06 10:51:51;;;;;;;1.10;0.70;;;26.50;1.00;;;;;;5125121;27;20838;-74
2022/07/06 10:54:21;;;;;;;3.23;1.33;;;26.10;1.00;;;;;;5130868;27;20527;-74
2022/07/06 10:56:50;;;;;;;1.00;0.80;;;26.10;1.00;;;;;;5131042;27;20494;-74
2022/07/06 10:59:18;;;;;;;0.83;0.73;;;26.50;1.00;;;;;;5132695;27;20991;-74
2022/07/06 11:02:17;;;;;;;1.93;0.77;;;26.60;1.00;;;;;;5131618;27;20759;-74
2022/07/06 11:04:45;;;;;;;1.00;0.80;;;26.60;1.00;;;;;;5133401;27;20451;-73
2022/07/06 11:07:13;;;;;;;0.90;0.70;;;26.20;1.00;;;;;;5118974;27;20481;-72
2022/07/06 11:09:47;;;;;;;1.20;0.70;;;26.10;1.00;;;;;;5127505;27;20452;-73
2022/07/06 11:12:18;;;;;;;2.70;0.90;;;26.30;1.00;;;;;;5128447;27;20537;-73
2022/07/06 11:14:46;;;;;;;1.27;0.80;;;26.30;1.00;;;;;;5137603;27;20809;-72
2022/07/06 11:17:14;;;;;;;1.20;0.77;;;26.50;1.00;;;;;;5138669;27;20756;-73
2022/07/06 11:19:55;;;;;;;0.80;0.73;;;26.80;1.00;;;;;;5135444;27;20543;-73
2022/07/06 11:22:24;;;;;;;0.80;0.70;;;26.60;1.00;;;;;;5136265;27;20444;-73
2022/07/06 11:24:52;;;;;;;1.30;0.80;;;26.90;1.00;;;;;;5135585;27;20456;-74
2022/07/06 11:27:19;;;;;;;1.77;0.90;;;27.10;1.00;;;;;;5135352;27;20444;-73
2022/07/06 11:29:47;;;;;;;1.33;0.70;;;27.70;1.00;;;;;;5148409;27;20855;-73
2022/07/06 11:32:14;;;;;;;1.53;0.80;;;27.70;1.00;;;;;;5132881;27;20464;-72
2022/07/06 11:34:43;;;;;;;1.90;1.00;;;27.50;1.00;;;;;;5132602;27;20470;-71
2022/07/06 11:37:13;;;;;;;1.43;0.80;;;27.40;1.00;;;;;;5143915;27;20775;-72
2022/07/06 11:39:41;;;;;;;0.97;0.70;;;26.80;1.00;;;;;;5135559;27;20452;-73
2022/07/06 11:42:10;;;;;;;1.30;0.77;;;26.30;1.00;;;;;;5131532;27;20505;-73
2022/07/06 11:44:38;;;;;;;2.60;1.10;;;26.30;1.00;;;;;;5127695;27;20801;-74
2022/07/06 11:47:07;;;;;;;1.93;0.80;;;26.50;1.00;;;;;;5128808;27;20561;-73
2022/07/06 11:49:35;;;;;;;1.33;1.00;;;26.70;1.00;;;;;;5132911;27;20505;-73
2022/07/06 11:52:06;;;;;;;1.10;0.70;;;26.60;1.00;;;;;;5133319;27;20540;-72
2022/07/06 11:54:35;;;;;;;0.90;0.73;;;26.90;1.00;;;;;;5132571;27;20546;-73
2022/07/06 11:57:03;;;;;;;1.00;0.90;;;26.80;1.00;;;;;;5129774;27;20444;-72
2022/07/06 11:59:32;;;;;;;1.07;0.90;;;26.00;1.00;;;;;;5129885;27;20454;-72
2022/07/06 12:02:01;;;;;;;1.00;0.77;;;25.80;1.00;;;;;;5129048;27;20512;-72
2022/07/06 12:04:28;;;;;;;3.20;0.87;;;26.20;1.00;;;;;;5127927;27;20483;-73
2022/07/06 12:06:55;;;;;;;1.10;0.80;;;26.60;1.00;;;;;;5131053;27;20502;-71
2022/07/06 12:09:23;;;;;;;1.20;0.80;;;27.00;1.00;;;;;;5133167;27;20551;-71
2022/07/06 12:11:53;;;;;;;1.00;0.70;;;27.60;1.00;;;;;;5131602;27;20766;-73
2022/07/06 12:14:21;;;;;;;1.20;0.80;;;27.60;1.00;;;;;;5121634;27;20457;-70
2022/07/06 12:16:51;;;;;;;2.23;0.90;;;27.40;1.00;;;;;;5118784;28;20495;-72
2022/07/06 12:19:22;;;;;;;1.30;0.90;;;27.80;1.00;;;;;;5131843;27;20895;-71
2022/07/06 12:21:50;;;;;;;0.80;0.70;;;27.60;1.00;;;;;;5124608;27;20484;-72
2022/07/06 12:24:25;;;;;;;1.23;0.70;;;28.00;1.00;;;;;;5119304;27;20452;-71
2022/07/06 12:26:55;;;;;;;1.13;0.90;;;28.30;1.00;;;;;;5131866;28;20447;-71
2022/07/06 12:29:23;;;;;;;1.53;0.93;;;28.20;1.00;;;;;;5131039;27;20456;-71
2022/07/06 12:31:52;;;;;;;1.03;0.70;;;28.40;1.00;;;;;;5131848;27;20534;-71
2022/07/06 12:34:20;;;;;;;2.37;0.80;;;28.60;1.00;;;;;;5131482;27;20450;-71
2022/07/06 12:36:49;;;;;;;1.30;0.80;;;28.10;1.00;;;;;;5127675;28;20819;-71
2022/07/06 12:39:18;;;;;;;0.93;0.77;;;27.40;1.00;;;;;;5124347;27;20824;-72
2022/07/06 12:41:47;;;;;;;1.13;0.90;;;27.30;1.00;;;;;;5125523;27;20483;-71
2022/07/06 12:44:19;;;;;;;1.03;0.90;;;27.30;1.00;;;;;;5110980;28;20449;-71
2022/07/06 12:46:47;;;;;;;1.20;0.80;;;27.20;1.00;;;;;;5123614;27;20826;-72
2022/07/06 12:49:19;;;;;;;1.43;1.00;;;27.30;1.00;;;;;;5134330;27;20474;-71
2022/07/06 12:51:59;;;;;;;1.23;0.90;;;27.30;1.00;;;;;;5122071;27;21115;-71
2022/07/06 12:54:28;;;;;;;1.10;0.90;;;27.10;1.00;;;;;;5121100;28;20592;-71
2022/07/06 12:57:04;;;;;;;1.00;0.70;;;27.00;1.00;;;;;;5113789;27;20475;-70
2022/07/06 12:59:33;;;;;;;1.63;0.80;;;26.70;1.00;;;;;;5124389;27;20463;-70
2022/07/06 13:02:00;;;;;;;1.00;0.80;;;26.60;1.00;;;;;;5128854;27;20435;-71
2022/07/06 13:04:29;;;;;;;3.50;0.90;;;27.10;1.00;;;;;;5128755;27;21147;-70
2022/07/06 13:06:56;;;;;;;1.00;0.70;;;27.40;1.00;;;;;;5121101;27;20471;-70